createdAt,value
2022-09-13T00:01:29.933Z,100.00
2022-09-13T00:03:56.853Z,100.00
2022-09-13T00:06:24.030Z,100.00
2022-09-13T00:08:53.249Z,100.00
2022-09-13T00:11:24.580Z,100.00
2022-09-13T00:13:52.461Z,100.00
2022-09-13T00:16:21.554Z,100.00
2022-09-13T00:18:48.813Z,100.00
2022-09-13T00:21:17.626Z,100.00
2022-09-13T00:23:45.166Z,100.00
2022-09-13T00:26:14.419Z,100.00
2022-09-13T00:28:43.101Z,100.00
2022-09-13T00:31:10.436Z,100.00
2022-09-13T00:33:38.326Z,100.00
2022-09-13T00:36:07.010Z,100.00
2022-09-13T00:38:35.598Z,100.00
2022-09-13T00:41:03.479Z,100.00
2022-09-13T00:43:47.771Z,100.00
2022-09-13T00:46:21.550Z,100.00
2022-09-13T00:48:51.962Z,100.00
2022-09-13T00:51:18.926Z,100.00
2022-09-13T00:53:51.653Z,100.00
2022-09-13T00:56:23.285Z,100.00
2022-09-13T00:58:58.590Z,100.00
2022-09-13T01:01:29.752Z,100.00
2022-09-13T01:03:56.747Z,100.00
2022-09-13T01:06:33.069Z,100.00
2022-09-13T01:09:04.471Z,100.00
2022-09-13T01:11:39.557Z,100.00
2022-09-13T01:14:09.524Z,100.00
2022-09-13T01:16:36.769Z,100.00
2022-09-13T01:19:04.156Z,100.00
2022-09-13T01:22:03.602Z,100.00
2022-09-13T01:25:20.561Z,100.00
2022-09-13T01:28:18.536Z,100.00
2022-09-13T01:30:54.940Z,100.00
2022-09-13T01:33:39.590Z,100.00
2022-09-13T01:36:32.816Z,100.00
2022-09-13T01:39:04.727Z,100.00
2022-09-13T01:41:57.849Z,100.00
2022-09-13T01:44:34.756Z,100.00
2022-09-13T01:47:11.525Z,100.00
2022-09-13T01:49:47.196Z,100.00
2022-09-13T01:52:22.389Z,100.00
2022-09-13T01:54:57.636Z,100.00
2022-09-13T01:57:32.262Z,100.00
2022-09-13T02:00:04.830Z,100.00
2022-09-13T02:02:40.761Z,100.00
2022-09-13T02:05:14.653Z,100.00
2022-09-13T02:07:43.230Z,100.00
2022-09-13T02:10:17.100Z,100.00
2022-09-13T02:12:44.309Z,100.00
2022-09-13T02:15:15.880Z,100.00
2022-09-13T02:17:47.445Z,100.00
2022-09-13T02:20:21.210Z,100.00
2022-09-13T02:22:54.462Z,100.00
2022-09-13T02:25:24.057Z,100.00
2022-09-13T02:27:59.058Z,100.00
2022-09-13T02:30:28.412Z,100.00
2022-09-13T02:33:01.570Z,100.00
2022-09-13T02:35:33.354Z,100.00
2022-09-13T02:38:04.067Z,100.00
2022-09-13T02:40:40.195Z,100.00
2022-09-13T02:43:11.208Z,100.00
2022-09-13T02:45:46.584Z,100.00
2022-09-13T02:48:23.413Z,100.00
2022-09-13T02:51:00.673Z,100.00
2022-09-13T02:53:33.722Z,100.00
2022-09-13T02:56:08.379Z,100.00
2022-09-13T02:58:44.099Z,100.00
2022-09-13T03:01:11.871Z,100.00
2022-09-13T03:03:40.197Z,100.00
2022-09-13T03:06:07.744Z,100.00
2022-09-13T03:08:35.876Z,100.00
2022-09-13T03:11:15.269Z,100.00
2022-09-13T03:14:05.452Z,100.00
2022-09-13T03:16:52.335Z,100.00
2022-09-13T03:19:35.540Z,100.00
2022-09-13T03:22:18.445Z,100.00
2022-09-13T03:24:52.856Z,100.00
2022-09-13T03:27:29.897Z,100.00
2022-09-13T03:30:03.543Z,100.00
2022-09-13T03:32:41.140Z,100.00
2022-09-13T03:35:19.296Z,100.00
2022-09-13T03:37:56.496Z,100.00
2022-09-13T03:40:34.662Z,100.00
2022-09-13T03:43:06.658Z,100.00
2022-09-13T03:45:39.947Z,100.00
2022-09-13T03:48:09.624Z,100.00
2022-09-13T03:50:39.690Z,100.00
2022-09-13T03:53:10.477Z,100.00
2022-09-13T03:55:41.928Z,100.00
2022-09-13T03:58:12.153Z,100.00
2022-09-13T04:00:41.546Z,100.00
2022-09-13T04:03:09.278Z,100.00
2022-09-13T04:05:37.560Z,100.00
2022-09-13T04:08:05.943Z,100.00
2022-09-13T04:10:33.531Z,100.00
2022-09-13T04:13:00.757Z,100.00
2022-09-13T04:15:27.965Z,100.00
2022-09-13T04:17:55.002Z,100.00
2022-09-13T04:20:22.219Z,100.00
2022-09-13T04:22:54.290Z,100.00
2022-09-13T04:25:22.341Z,100.00
2022-09-13T04:27:49.417Z,100.00
2022-09-13T04:30:16.252Z,100.00
2022-09-13T04:32:44.596Z,100.00
2022-09-13T04:35:11.826Z,36.71
2022-09-13T04:37:39.308Z,100.00
2022-09-13T04:40:09.465Z,100.00
2022-09-13T04:42:36.406Z,100.00
2022-09-13T04:45:03.756Z,100.00
2022-09-13T04:47:31.028Z,100.00
2022-09-13T04:49:57.964Z,100.00
2022-09-13T04:52:24.843Z,100.00
2022-09-13T04:54:51.833Z,100.00
2022-09-13T04:57:20.165Z,100.00
2022-09-13T04:59:47.399Z,100.00
2022-09-13T05:02:14.268Z,100.00
2022-09-13T05:04:41.769Z,100.00
2022-09-13T05:07:08.593Z,100.00
2022-09-13T05:09:35.467Z,100.00
2022-09-13T05:12:02.890Z,100.00
2022-09-13T05:14:31.232Z,100.00
2022-09-13T05:16:58.035Z,100.00
2022-09-13T05:19:25.164Z,100.00
2022-09-13T05:21:51.998Z,100.00
2022-09-13T05:24:18.815Z,100.00
2022-09-13T05:26:45.621Z,100.00
2022-09-13T05:29:12.421Z,100.00
2022-09-13T05:31:42.339Z,100.00
2022-09-13T05:34:11.444Z,100.00
2022-09-13T05:36:39.053Z,100.00
2022-09-13T05:41:55.200Z,100.00
2022-09-13T05:44:22.060Z,100.00
2022-09-13T05:46:50.268Z,100.00
2022-09-13T05:49:17.260Z,100.00
2022-09-13T05:51:44.075Z,100.00
2022-09-13T05:54:12.618Z,100.00
2022-09-13T05:56:39.896Z,100.00
2022-09-13T05:59:07.121Z,100.00
2022-09-13T06:01:34.082Z,100.00
2022-09-13T06:04:02.722Z,100.00
2022-09-13T06:06:29.607Z,100.00
2022-09-13T06:08:57.623Z,100.00
2022-09-13T06:11:26.549Z,100.00
2022-09-13T06:13:53.697Z,100.00
2022-09-13T06:16:21.318Z,100.00
2022-09-13T06:18:49.303Z,100.00
2022-09-13T06:21:19.458Z,100.00
2022-09-13T06:23:47.081Z,100.00
2022-09-13T06:26:15.202Z,100.00
2022-09-13T06:28:42.697Z,100.00
2022-09-13T06:31:11.237Z,100.00
2022-09-13T06:33:39.236Z,100.00
2022-09-13T06:36:08.026Z,100.00
2022-09-13T06:38:36.553Z,100.00
2022-09-13T06:41:05.345Z,100.00
2022-09-13T06:43:32.800Z,100.00
2022-09-13T06:46:01.645Z,100.00
2022-09-13T06:48:31.587Z,100.00
2022-09-13T06:50:59.981Z,100.00
2022-09-13T06:53:29.313Z,100.00
2022-09-13T06:56:06.183Z,100.00
2022-09-13T06:58:34.376Z,100.00
2022-09-13T07:01:13.299Z,100.00
2022-09-13T07:03:42.271Z,100.00
2022-09-13T07:06:13.938Z,100.00
2022-09-13T07:08:41.306Z,100.00
2022-09-13T07:11:10.675Z,100.00
2022-09-13T07:13:38.135Z,100.00
2022-09-13T07:16:07.000Z,100.00
2022-09-13T07:18:34.120Z,100.00
2022-09-13T07:21:03.416Z,100.00
2022-09-13T07:23:31.749Z,100.00
2022-09-13T07:26:02.394Z,100.00
2022-09-13T07:28:42.069Z,100.00
2022-09-13T07:31:10.940Z,100.00
2022-09-13T07:33:38.925Z,100.00
2022-09-13T07:36:07.353Z,100.00
2022-09-13T07:38:35.098Z,100.00
2022-09-13T07:41:03.442Z,100.00
2022-09-13T07:43:32.425Z,100.00
2022-09-13T07:46:00.795Z,100.00
2022-09-13T07:48:33.258Z,100.00
2022-09-13T07:51:02.475Z,100.00
2022-09-13T07:53:30.398Z,100.00
2022-09-13T07:56:02.384Z,100.00
2022-09-13T07:58:29.786Z,99.66
2022-09-13T08:01:05.425Z,98.75
2022-09-13T08:03:32.903Z,96.90
2022-09-13T08:05:59.880Z,97.81
2022-09-13T08:08:26.769Z,99.65
2022-09-13T08:10:53.787Z,98.05
2022-09-13T08:13:20.721Z,96.71
2022-09-13T08:15:48.660Z,97.50
2022-09-13T08:18:17.206Z,97.71
2022-09-13T08:20:44.362Z,98.05
2022-09-13T08:23:12.551Z,98.27
2022-09-13T08:25:39.854Z,98.82
2022-09-13T08:28:07.565Z,97.27
2022-09-13T08:30:37.065Z,96.13
2022-09-13T08:33:05.539Z,96.00
2022-09-13T08:35:34.124Z,94.30
2022-09-13T08:38:01.242Z,93.67
2022-09-13T08:40:32.052Z,100.00
2022-09-13T08:43:06.912Z,100.00
2022-09-13T08:45:33.916Z,100.00
2022-09-13T08:48:04.611Z,100.00
2022-09-13T08:50:36.502Z,100.00
2022-09-13T08:53:12.777Z,100.00
2022-09-13T08:55:51.548Z,100.00
2022-09-13T08:58:49.557Z,100.00
2022-09-13T09:01:25.754Z,100.00
2022-09-13T09:03:59.111Z,100.00
2022-09-13T09:06:30.744Z,100.00
2022-09-13T09:09:03.002Z,93.67
2022-09-13T09:11:36.855Z,81.78
2022-09-13T09:14:09.026Z,100.00
2022-09-13T09:16:41.616Z,100.00
2022-09-13T09:19:19.343Z,100.00
2022-09-13T09:21:50.881Z,100.00
2022-09-13T09:24:22.313Z,100.00
2022-09-13T09:26:52.241Z,100.00
2022-09-13T09:29:24.870Z,100.00
2022-09-13T09:32:03.358Z,100.00
2022-09-13T09:34:44.721Z,100.00
2022-09-13T09:37:18.903Z,100.00
2022-09-13T09:39:45.951Z,100.00
2022-09-13T09:42:17.433Z,100.00
2022-09-13T09:44:47.009Z,100.00
2022-09-13T09:47:18.354Z,100.00
2022-09-13T09:50:08.403Z,100.00
2022-09-13T09:52:41.278Z,100.00
2022-09-13T09:55:17.632Z,100.00
2022-09-13T09:57:52.459Z,100.00
2022-09-13T10:00:20.827Z,100.00
2022-09-13T10:02:50.213Z,100.00
2022-09-13T10:05:20.849Z,100.00
2022-09-13T10:07:55.378Z,100.00
2022-09-13T10:10:25.982Z,100.00
2022-09-13T10:12:56.888Z,100.00
2022-09-13T10:15:26.933Z,65.74
2022-09-13T10:18:40.081Z,64.53
2022-09-13T10:21:05.845Z,65.32
2022-09-13T10:23:35.339Z,62.48
2022-09-13T10:26:07.120Z,61.34
2022-09-13T10:28:36.542Z,61.40
2022-09-13T10:31:06.621Z,60.51
2022-09-13T10:33:37.402Z,58.33
2022-09-13T10:36:08.339Z,56.60
2022-09-13T10:38:42.967Z,100.00
2022-09-13T10:41:23.161Z,100.00
2022-09-13T10:43:57.138Z,100.00
2022-09-13T10:46:24.047Z,100.00
2022-09-13T10:48:57.545Z,100.00
2022-09-13T10:51:34.379Z,100.00
2022-09-13T10:54:17.338Z,100.00
2022-09-13T10:56:45.349Z,100.00
2022-09-13T10:59:22.912Z,100.00
2022-09-13T11:02:15.817Z,100.00
2022-09-13T11:05:06.485Z,100.00
2022-09-13T11:07:59.818Z,100.00
2022-09-13T11:10:35.125Z,100.00
2022-09-13T11:13:07.991Z,100.00
2022-09-13T11:15:50.472Z,100.00
2022-09-13T11:18:34.328Z,100.00
2022-09-13T11:21:16.954Z,100.00
2022-09-13T11:24:09.989Z,100.00
2022-09-13T11:26:52.852Z,100.00
2022-09-13T11:29:33.154Z,100.00
2022-09-13T11:32:13.378Z,100.00
2022-09-13T11:34:51.340Z,100.00
2022-09-13T11:37:40.547Z,100.00
2022-09-13T11:40:37.738Z,100.00
2022-09-13T11:43:27.830Z,100.00
2022-09-13T11:46:03.495Z,100.00
2022-09-13T11:48:51.850Z,100.00
2022-09-13T11:51:27.027Z,100.00
2022-09-13T11:54:17.168Z,100.00
2022-09-13T11:56:48.177Z,100.00
2022-09-13T11:59:24.986Z,100.00
2022-09-13T12:01:58.671Z,100.00
2022-09-13T12:04:33.763Z,100.00
2022-09-13T12:07:04.780Z,100.00
2022-09-13T12:09:37.223Z,100.00
2022-09-13T12:12:08.467Z,100.00
2022-09-13T12:14:48.208Z,56.60
2022-09-13T12:17:25.782Z,49.97
2022-09-13T12:19:55.862Z,100.00
2022-09-13T12:22:28.812Z,100.00
2022-09-13T12:25:00.471Z,100.00
2022-09-13T12:27:34.401Z,100.00
2022-09-13T12:30:14.047Z,100.00
2022-09-13T12:32:41.933Z,100.00
2022-09-13T12:35:16.938Z,100.00
2022-09-13T12:38:03.854Z,100.00
2022-09-13T12:41:19.235Z,100.00
2022-09-13T12:44:23.667Z,100.00
2022-09-13T12:47:17.346Z,100.00
2022-09-13T12:50:42.702Z,100.00
2022-09-13T12:53:12.357Z,100.00
2022-09-13T12:56:09.529Z,100.00
2022-09-13T12:59:04.487Z,100.00
2022-09-13T13:01:33.110Z,100.00
2022-09-13T13:04:09.285Z,100.00
2022-09-13T13:06:42.040Z,100.00
2022-09-13T13:09:28.750Z,100.00
2022-09-13T13:11:58.541Z,100.00
2022-09-13T13:14:46.742Z,100.00
2022-09-13T13:17:37.680Z,100.00
2022-09-13T13:20:42.925Z,100.00
2022-09-13T13:23:26.517Z,100.00
2022-09-13T13:26:05.550Z,100.00
2022-09-13T13:29:11.586Z,52.36
2022-09-13T13:31:41.443Z,54.03
2022-09-13T13:34:32.603Z,52.26
2022-09-13T13:37:02.756Z,52.89
2022-09-13T13:39:37.058Z,100.00
2022-09-13T13:42:13.803Z,100.00
2022-09-13T13:45:21.794Z,53.78
2022-09-13T13:48:08.247Z,100.00
2022-09-13T13:50:39.156Z,54.99
2022-09-13T13:53:23.373Z,100.00
2022-09-13T13:56:16.687Z,54.99
2022-09-13T13:58:49.313Z,55.31
2022-09-13T14:01:21.131Z,54.45
2022-09-13T14:04:22.587Z,55.65
2022-09-13T14:07:06.163Z,55.19
2022-09-13T14:09:47.007Z,55.42
2022-09-13T14:12:26.175Z,55.96
2022-09-13T14:15:12.370Z,56.27
2022-09-13T14:18:09.883Z,55.83
2022-09-13T14:20:36.770Z,55.80
2022-09-13T14:23:17.391Z,100.00
2022-09-13T14:25:44.571Z,100.00
2022-09-13T14:28:16.595Z,100.00
2022-09-13T14:30:46.898Z,57.97
2022-09-13T14:33:25.089Z,58.41
2022-09-13T14:35:58.725Z,58.48
2022-09-13T14:38:32.905Z,100.00
2022-09-13T14:41:02.608Z,100.00
2022-09-13T14:43:34.166Z,100.00
2022-09-13T14:46:07.914Z,100.00
2022-09-13T14:48:41.071Z,100.00
2022-09-13T14:51:17.840Z,100.00
2022-09-13T14:53:49.644Z,61.33
2022-09-13T14:56:20.648Z,61.70
2022-09-13T14:58:52.369Z,61.38
2022-09-13T15:01:22.674Z,62.24
2022-09-13T15:03:51.698Z,100.00
2022-09-13T15:06:24.491Z,100.00
2022-09-13T15:08:54.258Z,100.00
2022-09-13T15:11:33.109Z,100.00
2022-09-13T15:14:24.623Z,100.00
2022-09-13T15:16:54.374Z,100.00
2022-09-13T15:19:31.863Z,100.00
2022-09-13T15:22:21.780Z,100.00
2022-09-13T15:24:51.387Z,100.00
2022-09-13T15:27:21.724Z,65.94
2022-09-13T15:29:52.204Z,100.00
2022-09-13T15:32:40.783Z,100.00
2022-09-13T15:35:18.273Z,100.00
2022-09-13T15:37:45.254Z,100.00
2022-09-13T15:40:16.125Z,100.00
2022-09-13T15:42:46.943Z,100.00
2022-09-13T15:45:15.674Z,100.00
2022-09-13T15:47:45.972Z,100.00
2022-09-13T15:50:21.225Z,100.00
2022-09-13T15:52:48.163Z,100.00
2022-09-13T15:55:15.959Z,100.00
2022-09-13T15:57:45.206Z,100.00
2022-09-13T16:00:18.420Z,100.00
2022-09-13T16:02:45.319Z,68.86
2022-09-13T16:05:13.557Z,68.82
2022-09-13T16:07:41.617Z,68.65
2022-09-13T16:10:15.107Z,68.42
2022-09-13T16:12:42.298Z,68.96
2022-09-13T16:15:10.390Z,69.25
2022-09-13T16:17:38.924Z,69.35
2022-09-13T16:20:08.124Z,68.96
2022-09-13T16:22:35.849Z,69.27
2022-09-13T16:25:04.923Z,69.27
2022-09-13T16:27:34.167Z,69.45
2022-09-13T16:30:01.566Z,69.39
2022-09-13T16:32:28.706Z,100.00
2022-09-13T16:34:57.816Z,70.04
2022-09-13T16:37:24.943Z,100.00
2022-09-13T16:39:51.825Z,100.00
2022-09-13T16:42:20.054Z,69.47
2022-09-13T16:44:46.913Z,68.83
2022-09-13T16:47:13.833Z,68.61
2022-09-13T16:49:40.751Z,68.61
2022-09-13T16:52:09.838Z,71.86
2022-09-13T16:54:37.178Z,70.19
2022-09-13T16:57:05.360Z,72.23
2022-09-13T16:59:32.931Z,72.44
2022-09-13T17:01:59.918Z,72.69
2022-09-13T17:04:27.074Z,73.86
2022-09-13T17:06:53.914Z,76.14
2022-09-13T17:09:23.878Z,77.32
2022-09-13T17:11:51.062Z,76.31
2022-09-13T17:14:18.450Z,77.97
2022-09-13T17:16:49.547Z,74.92
2022-09-13T17:19:18.963Z,76.87
2022-09-13T17:21:46.570Z,77.87
2022-09-13T17:24:15.634Z,79.20
2022-09-13T17:26:47.256Z,77.20
2022-09-13T17:29:16.503Z,78.26
2022-09-13T17:31:43.959Z,78.38
2022-09-13T17:34:11.310Z,80.29
2022-09-13T17:36:39.186Z,80.36
2022-09-13T17:39:06.218Z,81.01
2022-09-13T17:41:33.264Z,82.86
2022-09-13T17:44:02.247Z,84.48
2022-09-13T17:46:31.136Z,84.34
2022-09-13T17:48:59.814Z,83.49
2022-09-13T17:51:29.305Z,83.81
2022-09-13T17:53:58.802Z,84.27
2022-09-13T17:56:29.796Z,84.59
2022-09-13T17:58:57.833Z,85.86
2022-09-13T18:01:26.567Z,85.97
2022-09-13T18:03:54.821Z,87.72
2022-09-13T18:06:22.069Z,90.61
2022-09-13T18:08:49.031Z,93.10
2022-09-13T18:11:22.188Z,93.10
2022-09-13T18:13:49.747Z,94.91
2022-09-13T18:16:21.373Z,91.33
2022-09-13T18:18:51.704Z,92.96
2022-09-13T18:21:20.700Z,97.17
2022-09-13T18:23:49.309Z,100.00
2022-09-13T18:26:18.673Z,100.00
2022-09-13T18:28:46.278Z,100.00
2022-09-13T18:31:15.269Z,100.00
2022-09-13T18:33:42.314Z,100.00
2022-09-13T18:36:13.060Z,100.00
2022-09-13T18:38:41.606Z,100.00
2022-09-13T18:41:11.365Z,100.00
2022-09-13T18:43:39.850Z,100.00
2022-09-13T18:46:10.146Z,100.00
2022-09-13T18:48:39.454Z,100.00
2022-09-13T18:51:11.578Z,100.00
2022-09-13T18:53:39.168Z,100.00
2022-09-13T18:56:08.624Z,100.00
2022-09-13T18:58:36.921Z,100.00
2022-09-13T19:01:06.070Z,100.00
2022-09-13T19:03:34.580Z,100.00
2022-09-13T19:06:14.536Z,100.00
2022-09-13T19:08:41.985Z,100.00
2022-09-13T19:11:23.791Z,100.00
2022-09-13T19:13:56.921Z,100.00
2022-09-13T19:16:25.401Z,100.00
2022-09-13T19:18:53.092Z,100.00
2022-09-13T19:21:24.066Z,100.00
2022-09-13T19:24:00.031Z,100.00
2022-09-13T19:26:30.225Z,100.00
2022-09-13T19:29:05.094Z,100.00
2022-09-13T19:31:34.441Z,100.00
2022-09-13T19:34:02.386Z,100.00
2022-09-13T19:36:34.292Z,100.00
2022-09-13T19:39:02.063Z,100.00
2022-09-13T19:41:30.467Z,100.00
2022-09-13T19:44:00.304Z,100.00
2022-09-13T19:46:29.009Z,100.00
2022-09-13T19:48:56.449Z,100.00
2022-09-13T19:51:28.899Z,100.00
2022-09-13T19:53:58.761Z,100.00
2022-09-13T19:56:27.496Z,100.00
2022-09-13T19:58:54.725Z,100.00
2022-09-13T20:01:23.532Z,100.00
2022-09-13T20:03:52.341Z,100.00
2022-09-13T20:06:19.470Z,100.00
2022-09-13T20:08:46.906Z,100.00
2022-09-13T20:11:16.601Z,100.00
2022-09-13T20:13:44.746Z,100.00
2022-09-13T20:16:12.595Z,100.00
2022-09-13T20:18:39.761Z,100.00
2022-09-13T20:21:08.071Z,100.00
2022-09-13T20:23:36.189Z,100.00
2022-09-13T20:26:04.322Z,100.00
2022-09-13T20:28:32.630Z,100.00
2022-09-13T20:31:01.981Z,100.00
2022-09-13T20:33:28.812Z,100.00
2022-09-13T20:35:55.644Z,100.00
2022-09-13T20:38:22.499Z,100.00
2022-09-13T20:40:50.225Z,100.00
2022-09-13T20:43:17.297Z,100.00
2022-09-13T20:45:56.000Z,100.00
2022-09-13T20:48:23.305Z,100.00
2022-09-13T20:50:56.831Z,100.00
2022-09-13T20:53:24.424Z,100.00
2022-09-13T20:55:52.603Z,100.00
2022-09-13T20:58:20.889Z,100.00
2022-09-13T21:00:50.031Z,100.00
2022-09-13T21:03:16.924Z,100.00
2022-09-13T21:05:43.989Z,100.00
2022-09-13T21:08:33.757Z,100.00
2022-09-13T21:11:04.751Z,100.00
2022-09-13T21:13:33.952Z,100.00
2022-09-13T21:16:04.288Z,100.00
2022-09-13T21:18:31.432Z,100.00
2022-09-13T21:20:59.462Z,100.00
2022-09-13T21:23:27.574Z,100.00
2022-09-13T21:25:54.358Z,100.00
2022-09-13T21:28:21.250Z,100.00
2022-09-13T21:31:09.581Z,100.00
2022-09-13T21:33:36.553Z,100.00
2022-09-13T21:36:05.519Z,100.00
2022-09-13T21:38:33.806Z,100.00
2022-09-13T21:41:02.071Z,100.00
2022-09-13T21:43:30.114Z,100.00
2022-09-13T21:46:03.292Z,100.00
2022-09-13T21:48:33.320Z,100.00
2022-09-13T21:51:08.523Z,100.00
2022-09-13T21:53:37.534Z,100.00
2022-09-13T21:56:06.351Z,100.00
2022-09-13T21:58:33.807Z,100.00
2022-09-13T22:01:06.224Z,100.00
2022-09-13T22:03:37.362Z,100.00
2022-09-13T22:06:05.449Z,100.00
2022-09-13T22:08:33.640Z,100.00
2022-09-13T22:11:04.669Z,100.00
2022-09-13T22:13:33.455Z,100.00
2022-09-13T22:16:04.901Z,100.00
2022-09-13T22:18:32.150Z,100.00
2022-09-13T22:21:05.353Z,100.00
2022-09-13T22:23:32.900Z,100.00
2022-09-13T22:25:59.744Z,100.00
2022-09-13T22:28:27.201Z,100.00
2022-09-13T22:30:54.050Z,100.00
2022-09-13T22:33:22.095Z,100.00
2022-09-13T22:35:58.475Z,100.00
2022-09-13T22:38:26.922Z,100.00
2022-09-13T22:40:57.710Z,100.00
2022-09-13T22:43:25.887Z,100.00
2022-09-13T22:45:53.455Z,100.00
2022-09-13T22:48:22.721Z,100.00
2022-09-13T22:50:50.933Z,100.00
2022-09-13T22:53:17.922Z,100.00
2022-09-13T22:55:46.361Z,100.00
2022-09-13T22:58:13.301Z,100.00
2022-09-13T23:00:40.375Z,100.00
2022-09-13T23:03:07.765Z,100.00
2022-09-13T23:05:35.171Z,100.00
2022-09-13T23:08:02.513Z,100.00
2022-09-13T23:10:29.556Z,100.00
2022-09-13T23:13:00.584Z,100.00
2022-09-13T23:15:27.521Z,100.00
2022-09-13T23:17:54.785Z,100.00
2022-09-13T23:20:21.636Z,100.00
2022-09-13T23:22:48.516Z,100.00
2022-09-13T23:25:15.520Z,100.00
2022-09-13T23:27:42.361Z,100.00
2022-09-13T23:30:11.828Z,100.00
2022-09-13T23:32:38.985Z,100.00
2022-09-13T23:35:06.791Z,100.00
2022-09-13T23:37:33.643Z,100.00
2022-09-13T23:40:01.602Z,100.00
2022-09-13T23:42:29.091Z,100.00
2022-09-13T23:44:55.929Z,100.00
2022-09-13T23:47:24.188Z,100.00
2022-09-13T23:49:51.197Z,100.00
2022-09-13T23:52:17.982Z,100.00
2022-09-13T23:54:45.724Z,100.00
2022-09-13T23:57:12.487Z,100.00
2022-09-13T23:59:40.045Z,100.00
